Time;durP1;ratioP1;P1;durP2;ratioP2;P2;SDS_P1;SDS_P2;PMS_P1;PMS_P2;Temp;Humidity;BMP_temperature;BMP_pressure;BME280_temperature;BME280_humidity;BME280_pressure;Samples;Min_cycle;Max_cycle;Signal;HPM_P1;HPM_P2
2022/01/07 00:00:06;;;;;;;12.20;3.03;;;;;;;12.33;45.12;101345.75;5113513;27;20050;-70
2022/01/07 00:02:31;;;;;;;8.03;2.50;;;;;;;11.77;46.67;101340.06;5115470;27;20023;-70
2022/01/07 00:04:57;;;;;;;4.50;2.43;;;;;;;11.11;47.18;101337.81;5131484;27;20033;-70
2022/01/07 00:07:22;;;;;;;8.73;2.70;;;;;;;10.43;48.55;101330.19;5113081;27;20069;-70
2022/01/07 00:09:48;;;;;;;4.70;2.03;;;;;;;11.08;46.81;101330.00;5113229;27;20039;-70
2022/01/07 00:12:15;;;;;;;5.27;2.83;;;;;;;11.01;48.51;101330.00;5113003;27;20096;-70
2022/01/07 00:14:40;;;;;;;4.70;2.70;;;;;;;11.93;45.47;101330.34;5112329;27;20383;-70
2022/01/07 00:17:06;;;;;;;7.40;2.47;;;;;;;10.30;48.64;101327.53;5112069;27;20034;-70
2022/01/07 00:19:31;;;;;;;6.13;2.63;;;;;;;11.22;46.22;101317.69;5113271;27;20043;-70
2022/01/07 00:21:56;;;;;;;4.73;2.47;;;;;;;11.20;47.33;101314.22;5097591;28;20019;-69
2022/01/07 00:24:22;;;;;;;6.90;2.40;;;;;;;11.43;45.90;101305.38;5094098;27;20463;-69
2022/01/07 00:26:47;;;;;;;6.03;2.70;;;;;;;10.86;47.66;101309.13;5112984;27;20035;-69
2022/01/07 00:29:13;;;;;;;8.10;2.33;;;;;;;11.35;46.31;101308.91;5112833;27;20057;-70
2022/01/07 00:31:38;;;;;;;7.60;2.30;;;;;;;11.44;46.50;101301.88;5108937;27;20401;-70
2022/01/07 00:34:03;;;;;;;4.33;2.00;;;;;;;10.45;47.68;101307.50;5112532;27;20034;-69
2022/01/07 00:36:29;;;;;;;8.10;3.03;;;;;;;10.74;47.05;101288.25;5111920;27;20065;-69
2022/01/07 00:38:54;;;;;;;5.83;2.10;;;;;;;11.05;47.41;101288.16;5113039;27;20022;-69
2022/01/07 00:41:19;;;;;;;7.10;2.13;;;;;;;11.25;46.01;101281.06;5106955;27;20046;-69
2022/01/07 00:43:45;;;;;;;10.50;2.50;;;;;;;12.06;44.71;101278.75;5131070;27;20116;-69
2022/01/07 00:46:10;;;;;;;11.70;2.53;;;;;;;11.13;47.26;101286.38;5112322;27;20031;-69
2022/01/07 00:48:35;;;;;;;6.40;2.23;;;;;;;10.80;48.35;101277.78;5131421;27;20027;-69
2022/01/07 00:51:01;;;;;;;3.10;2.00;;;;;;;10.87;48.22;101276.88;5124272;27;20177;-69
2022/01/07 00:53:26;;;;;;;7.70;1.90;;;;;;;11.23;48.77;101268.88;5092082;28;20020;-69
2022/01/07 00:55:51;;;;;;;5.70;2.10;;;;;;;11.21;47.88;101279.34;5102906;27;20140;-69
2022/01/07 00:58:17;;;;;;;6.23;2.30;;;;;;;11.03;49.52;101270.72;5112184;27;20023;-69
2022/01/07 01:00:43;;;;;;;5.73;2.70;;;;;;;10.95;50.12;101276.84;5107623;27;20020;-69
2022/01/07 01:03:08;;;;;;;7.90;2.40;;;;;;;11.13;48.68;101275.91;5130749;27;20034;-70
2022/01/07 01:05:35;;;;;;;7.43;2.13;;;;;;;11.70;47.74;101265.94;5123088;27;20031;-69
2022/01/07 01:08:01;;;;;;;11.90;3.27;;;;;;;11.58;48.06;101252.94;5104408;27;20108;-69
2022/01/07 01:10:26;;;;;;;5.97;2.70;;;;;;;11.19;50.12;101257.53;5110884;27;20023;-69
2022/01/07 01:12:53;;;;;;;7.60;2.93;;;;;;;12.15;48.11;101246.34;5129643;27;20034;-69
2022/01/07 01:15:22;;;;;;;9.70;2.53;;;;;;;11.09;51.13;101259.34;5112103;27;20015;-69
2022/01/07 01:17:49;;;;;;;6.37;3.10;;;;;;;11.55;50.71;101245.06;5112133;27;20497;-69
2022/01/07 01:20:15;;;;;;;5.80;2.80;;;;;;;10.71;51.70;101251.66;5111981;28;20050;-68
2022/01/07 01:22:41;;;;;;;11.70;3.43;;;;;;;10.85;51.71;101244.63;5111324;27;20376;-69
2022/01/07 01:25:07;;;;;;;11.93;3.60;;;;;;;11.76;49.42;101236.19;5128598;27;20447;-69
2022/01/07 01:27:33;;;;;;;5.40;2.63;;;;;;;11.97;48.46;101235.16;5120451;27;20030;-69
2022/01/07 01:30:00;;;;;;;7.07;3.40;;;;;;;11.78;50.16;101223.09;5111884;27;20039;-69
2022/01/07 01:32:26;;;;;;;10.13;3.63;;;;;;;11.16;50.20;101232.25;5097593;28;20472;-68
2022/01/07 01:34:51;;;;;;;8.63;4.27;;;;;;;11.23;50.53;101229.63;5092872;27;20031;-69
2022/01/07 01:37:16;;;;;;;13.80;3.60;;;;;;;11.43;49.82;101221.59;5112194;28;20073;-69
2022/01/07 01:39:42;;;;;;;11.50;4.00;;;;;;;12.00;47.75;101221.16;5111867;28;20704;-69
2022/01/07 01:42:08;;;;;;;7.60;3.33;;;;;;;11.07;50.81;101223.59;5109362;28;20023;-69
2022/01/07 01:44:33;;;;;;;8.20;3.60;;;;;;;11.97;49.21;101214.19;5112153;28;20050;-69
2022/01/07 01:46:59;;;;;;;12.10;4.07;;;;;;;10.95;50.24;101217.56;5111006;28;20027;-69
2022/01/07 01:49:24;;;;;;;9.33;4.20;;;;;;;11.78;49.17;101217.84;5111835;28;20031;-69
2022/01/07 01:51:50;;;;;;;8.93;3.60;;;;;;;12.59;47.92;101202.19;5119668;28;20054;-69
2022/01/07 01:54:16;;;;;;;8.63;3.53;;;;;;;12.85;46.04;101199.22;5109596;28;20205;-69
2022/01/07 01:56:41;;;;;;;12.13;3.93;;;;;;;12.43;48.27;101191.00;5124279;28;20019;-69
2022/01/07 01:59:08;;;;;;;11.33;4.13;;;;;;;11.89;48.75;101195.03;5111702;28;20307;-69
2022/01/07 02:01:34;;;;;;;9.40;4.37;;;;;;;11.06;50.62;101200.94;5104052;28;20441;-69
2022/01/07 02:04:00;;;;;;;7.30;4.07;;;;;;;12.04;48.75;101189.66;5109742;28;20075;-69
2022/01/07 02:06:25;;;;;;;8.57;4.00;;;;;;;12.67;47.15;101189.84;5118821;28;20038;-69
2022/01/07 02:08:51;;;;;;;12.17;3.87;;;;;;;12.60;47.24;101183.81;5091206;28;20066;-69
2022/01/07 02:11:16;;;;;;;8.43;4.43;;;;;;;12.14;47.58;101184.34;5114790;28;20062;-69
2022/01/07 02:13:42;;;;;;;8.13;4.27;;;;;;;11.52;50.01;101170.03;5097941;28;20063;-69
2022/01/07 02:16:08;;;;;;;6.83;4.20;;;;;;;11.52;50.16;101163.97;5129115;28;20058;-69
2022/01/07 02:18:34;;;;;;;14.93;4.47;;;;;;;11.43;52.01;101170.16;5111981;28;20039;-69
2022/01/07 02:21:00;;;;;;;10.03;4.20;;;;;;;11.91;48.84;101167.09;5128926;28;20065;-69
2022/01/07 02:23:25;;;;;;;9.53;4.67;;;;;;;11.25;50.56;101170.28;5129764;28;20032;-70
2022/01/07 02:25:52;;;;;;;6.83;4.17;;;;;;;11.62;50.91;101160.38;5109822;28;20015;-69
2022/01/07 02:28:17;;;;;;;11.00;4.80;;;;;;;11.75;49.33;101161.13;5095919;28;20031;-69
2022/01/07 02:30:42;;;;;;;12.60;5.13;;;;;;;12.90;47.69;101155.44;5111158;28;20049;-69
2022/01/07 02:33:08;;;;;;;10.97;5.33;;;;;;;12.88;47.26;101157.19;5093103;28;20031;-69
2022/01/07 02:35:35;;;;;;;12.63;5.20;;;;;;;13.70;45.39;101154.16;5095341;28;20069;-69
2022/01/07 02:38:01;;;;;;;9.50;4.03;;;;;;;10.89;51.24;101161.81;5115095;27;20113;-69
2022/01/07 02:40:27;;;;;;;9.17;4.93;;;;;;;12.63;47.46;101151.44;5133178;27;20092;-69
2022/01/07 02:42:53;;;;;;;11.03;5.30;;;;;;;13.03;46.97;101141.22;5110711;27;20524;-69
2022/01/07 02:45:19;;;;;;;8.50;4.83;;;;;;;12.86;47.29;101159.00;5133184;27;20023;-69
2022/01/07 02:47:55;;;;;;;9.13;5.03;;;;;;;11.67;50.01;101142.88;5115790;27;20097;-69
2022/01/07 02:50:26;;;;;;;13.37;4.87;;;;;;;12.68;48.29;101140.00;5114310;27;20470;-68
2022/01/07 02:52:52;;;;;;;13.47;4.93;;;;;;;12.39;48.30;101122.88;5096788;28;20035;-69
2022/01/07 02:55:19;;;;;;;9.07;5.17;;;;;;;12.94;47.69;101123.00;5126488;27;20106;-69
2022/01/07 02:57:44;;;;;;;11.50;5.20;;;;;;;12.26;49.19;101123.91;5114479;27;20034;-69
2022/01/07 03:00:11;;;;;;;8.23;4.60;;;;;;;11.82;49.85;101115.66;5114676;27;20467;-69
2022/01/07 03:02:37;;;;;;;10.40;4.97;;;;;;;11.68;50.98;101123.66;5111379;27;20451;-70
2022/01/07 03:05:03;;;;;;;10.73;5.03;;;;;;;12.17;49.13;101117.06;5132615;27;20019;-70
2022/01/07 03:07:29;;;;;;;14.33;5.93;;;;;;;12.34;49.70;101118.59;5114385;27;20531;-70
2022/01/07 03:09:54;;;;;;;10.77;6.20;;;;;;;12.88;46.90;101113.44;5133116;27;20119;-69
2022/01/07 03:12:20;;;;;;;11.70;6.50;;;;;;;12.61;48.50;101106.88;5109791;27;20085;-69
2022/01/07 03:14:48;;;;;;;9.50;6.20;;;;;;;12.38;49.43;101122.91;5115236;27;20027;-70
2022/01/07 03:17:13;;;;;;;16.33;6.47;;;;;;;12.44;49.51;101114.09;5131926;27;20352;-70
2022/01/07 03:19:39;;;;;;;15.40;6.77;;;;;;;12.81;48.36;101103.09;5114261;27;20055;-70
2022/01/07 03:22:04;;;;;;;11.43;7.07;;;;;;;12.89;48.81;101101.22;5113100;27;20379;-69
2022/01/07 03:24:29;;;;;;;15.63;6.67;;;;;;;12.13;50.84;101104.00;5114118;27;20034;-70
2022/01/07 03:26:55;;;;;;;13.50;6.47;;;;;;;11.93;51.51;101106.81;5131978;27;20039;-70
2022/01/07 03:29:20;;;;;;;10.13;6.07;;;;;;;12.30;50.50;101095.94;5111920;27;20034;-70
2022/01/07 03:31:45;;;;;;;14.80;6.93;;;;;;;12.70;48.53;101090.97;5113414;27;20038;-70
2022/01/07 03:34:11;;;;;;;15.33;8.10;;;;;;;12.07;50.03;101093.59;5112079;27;20481;-70
2022/01/07 03:36:36;;;;;;;11.70;6.33;;;;;;;12.58;49.57;101085.06;5113776;27;20525;-70
2022/01/07 03:39:03;;;;;;;12.93;6.20;;;;;;;11.88;50.12;101099.00;5113780;27;20474;-69
2022/01/07 03:41:28;;;;;;;10.73;6.40;;;;;;;12.82;49.15;101083.84;5131286;27;20386;-69
2022/01/07 03:43:54;;;;;;;15.17;6.63;;;;;;;12.97;48.27;101087.97;5129240;27;20035;-69
2022/01/07 03:46:20;;;;;;;11.53;6.50;;;;;;;12.65;49.53;101081.44;5113186;27;20535;-69
2022/01/07 03:48:45;;;;;;;10.33;6.37;;;;;;;13.36;46.78;101075.97;5113366;27;20595;-70
2022/01/07 03:51:11;;;;;;;9.47;6.20;;;;;;;13.15;47.73;101071.06;5131962;27;20019;-69
2022/01/07 03:53:36;;;;;;;15.47;6.33;;;;;;;12.42;49.88;101071.28;5097604;27;20483;-69
2022/01/07 03:56:02;;;;;;;15.63;7.47;;;;;;;12.75;50.27;101066.44;5096063;27;20038;-69
2022/01/07 03:58:28;;;;;;;14.00;7.23;;;;;;;11.93;50.92;101057.91;5113892;27;20064;-68
2022/01/07 04:00:53;;;;;;;16.27;8.00;;;;;;;11.84;52.77;101052.78;5113271;27;20019;-69
2022/01/07 04:03:19;;;;;;;10.83;6.53;;;;;;;12.06;51.15;101045.56;5128190;27;20531;-69
2022/01/07 04:05:45;;;;;;;10.33;6.40;;;;;;;11.97;52.63;101041.31;5114125;27;20440;-69
2022/01/07 04:08:11;;;;;;;11.20;7.33;;;;;;;11.73;51.91;101041.56;5130891;27;20410;-69
2022/01/07 04:10:37;;;;;;;12.77;7.23;;;;;;;12.07;51.37;101034.19;5113669;27;20027;-69
2022/01/07 04:13:03;;;;;;;11.93;7.43;;;;;;;13.10;48.71;101030.91;5130224;27;20027;-70
2022/01/07 04:15:29;;;;;;;15.63;7.87;;;;;;;13.59;46.80;101035.28;5112740;27;20031;-70
2022/01/07 04:17:55;;;;;;;13.40;7.40;;;;;;;13.34;47.92;101034.84;5130809;27;20402;-70
2022/01/07 04:20:33;;;;;;;12.80;7.93;;;;;;;12.40;50.26;101045.09;5113115;27;20156;-69
2022/01/07 04:22:59;;;;;;;13.53;7.80;;;;;;;13.85;47.40;101041.81;5123222;27;20088;-70
2022/01/07 04:25:25;;;;;;;19.20;8.47;;;;;;;13.44;47.68;101056.59;5092294;28;20032;-70
2022/01/07 04:27:55;;;;;;;14.10;7.53;;;;;;;13.12;48.06;101039.59;5099856;28;20464;-70
2022/01/07 04:30:21;;;;;;;15.00;8.00;;;;;;;12.91;49.07;101031.22;5092392;28;20047;-69
2022/01/07 04:32:48;;;;;;;18.03;8.20;;;;;;;12.33;50.13;101027.72;5104345;28;20116;-70
2022/01/07 04:35:15;;;;;;;16.40;8.23;;;;;;;12.73;50.04;101011.41;5092450;28;20080;-70
2022/01/07 04:37:40;;;;;;;14.60;7.40;;;;;;;11.95;52.21;101035.22;5107853;27;20452;-70
2022/01/07 04:40:09;;;;;;;18.67;8.07;;;;;;;12.99;49.47;101045.06;5131145;27;20030;-70
2022/01/07 04:42:34;;;;;;;13.43;8.13;;;;;;;12.84;49.86;101024.34;5123877;27;20382;-70
2022/01/07 04:44:59;;;;;;;15.50;7.80;;;;;;;13.49;48.11;101033.72;5112355;27;20027;-70
2022/01/07 04:47:25;;;;;;;15.07;8.20;;;;;;;12.99;48.68;101024.06;5131216;27;20019;-70
2022/01/07 04:49:50;;;;;;;18.57;7.13;;;;;;;13.34;49.03;101029.59;5112547;27;20027;-69
2022/01/07 04:52:17;;;;;;;12.87;7.30;;;;;;;12.75;49.28;101025.38;5104189;28;20038;-70
2022/01/07 04:54:44;;;;;;;11.60;7.30;;;;;;;12.84;49.69;101021.72;5092781;28;20031;-70
2022/01/07 04:57:09;;;;;;;14.83;6.97;;;;;;;12.52;51.14;101023.09;5121677;27;20023;-70
2022/01/07 04:59:34;;;;;;;13.60;7.90;;;;;;;12.97;49.13;101010.13;5111658;28;20015;-70
2022/01/07 05:02:00;;;;;;;14.60;7.47;;;;;;;13.16;48.71;101015.94;5109382;27;20450;-70
2022/01/07 05:04:25;;;;;;;14.23;7.60;;;;;;;12.98;50.02;101017.13;5130097;27;20513;-70
2022/01/07 05:06:52;;;;;;;15.23;6.67;;;;;;;12.47;51.21;101019.66;5130744;27;20324;-70
2022/01/07 05:09:18;;;;;;;10.20;6.17;;;;;;;14.19;46.15;101005.16;5112584;27;20123;-70
2022/01/07 05:11:46;;;;;;;14.13;6.73;;;;;;;13.54;46.83;101016.97;5107928;27;20064;-70
2022/01/07 05:14:12;;;;;;;14.57;6.90;;;;;;;12.75;50.69;101011.38;5095927;28;20024;-70
2022/01/07 05:16:38;;;;;;;9.83;6.17;;;;;;;12.86;51.07;101017.31;5098306;27;20425;-70
2022/01/07 05:19:03;;;;;;;10.37;5.77;;;;;;;12.57;51.69;101016.03;5129661;27;20031;-71
2022/01/07 05:21:29;;;;;;;11.73;6.13;;;;;;;13.20;48.40;101033.34;5111400;27;20020;-70
2022/01/07 05:23:54;;;;;;;13.53;6.33;;;;;;;13.70;47.77;101028.06;5092912;28;20046;-70
2022/01/07 05:26:20;;;;;;;12.87;6.53;;;;;;;13.40;47.51;101017.25;5112226;27;20060;-70
2022/01/07 05:28:45;;;;;;;13.47;5.70;;;;;;;13.53;47.27;101014.38;5131274;27;20390;-70
2022/01/07 05:31:11;;;;;;;14.17;6.43;;;;;;;12.13;52.44;101025.38;5107308;28;20509;-69
2022/01/07 05:33:36;;;;;;;17.83;7.07;;;;;;;12.84;50.52;101019.09;5112180;28;20027;-70
2022/01/07 05:36:02;;;;;;;16.50;7.67;;;;;;;12.95;49.96;101027.63;5112429;27;20019;-70
2022/01/07 05:38:27;;;;;;;11.47;6.60;;;;;;;13.56;47.75;101030.13;5112873;27;20024;-70
2022/01/07 05:40:53;;;;;;;13.10;6.67;;;;;;;14.03;46.84;101028.25;5116381;28;20027;-70
2022/01/07 05:43:18;;;;;;;12.07;5.80;;;;;;;12.89;48.86;101017.25;5111808;28;20015;-70
2022/01/07 05:45:45;;;;;;;11.90;6.90;;;;;;;14.00;46.90;101020.47;5112068;28;20466;-70
2022/01/07 05:48:14;;;;;;;15.00;6.43;;;;;;;13.69;48.39;101025.47;5130141;28;20443;-70
2022/01/07 05:50:39;;;;;;;14.40;6.73;;;;;;;13.56;47.34;101009.97;5130352;28;20311;-69
2022/01/07 05:53:05;;;;;;;12.67;6.57;;;;;;;14.15;46.64;101018.38;5108793;28;20031;-69
2022/01/07 05:55:30;;;;;;;13.63;6.83;;;;;;;12.82;49.62;101023.50;5111168;28;20351;-69
2022/01/07 05:57:56;;;;;;;13.20;7.37;;;;;;;13.53;48.73;101030.16;5112043;28;20095;-69
2022/01/07 06:00:21;;;;;;;14.30;6.50;;;;;;;13.94;47.23;101015.31;5110741;28;20110;-69
2022/01/07 06:02:47;;;;;;;13.37;6.50;;;;;;;13.31;48.16;101006.91;5126533;28;20027;-69
2022/01/07 06:05:12;;;;;;;11.37;6.30;;;;;;;14.20;46.34;101011.25;5111066;28;20038;-69
2022/01/07 06:07:38;;;;;;;12.83;7.07;;;;;;;13.97;47.06;101020.53;5129312;28;20032;-69
2022/01/07 06:10:05;;;;;;;16.50;7.17;;;;;;;13.37;48.33;101025.19;5111134;28;20038;-70
2022/01/07 06:12:30;;;;;;;14.97;6.97;;;;;;;13.36;49.39;101027.84;5111227;27;20041;-69
2022/01/07 06:14:55;;;;;;;11.17;6.13;;;;;;;13.52;49.09;101028.44;5114831;27;20026;-69
2022/01/07 06:17:21;;;;;;;11.27;6.23;;;;;;;14.23;45.94;101019.06;5115318;27;20104;-68
2022/01/07 06:19:46;;;;;;;14.70;6.80;;;;;;;14.67;45.26;101022.50;5115439;27;20158;-69
2022/01/07 06:22:12;;;;;;;10.93;6.37;;;;;;;13.57;48.36;101027.44;5103087;28;20031;-69
2022/01/07 06:24:37;;;;;;;16.33;6.90;;;;;;;14.02;47.81;101023.91;5110091;27;20031;-69
2022/01/07 06:27:03;;;;;;;22.07;7.27;;;;;;;13.19;47.97;101030.75;5114444;27;20027;-68
2022/01/07 06:29:28;;;;;;;14.33;6.13;;;;;;;13.94;47.84;101019.72;5115512;27;20117;-69
2022/01/07 06:31:54;;;;;;;15.83;7.07;;;;;;;14.59;45.11;101013.91;5125069;27;20431;-69
2022/01/07 06:34:20;;;;;;;11.10;6.63;;;;;;;14.48;45.74;101010.63;5133279;27;20038;-69
2022/01/07 06:36:50;;;;;;;19.40;6.87;;;;;;;13.49;48.29;101023.22;5114743;27;20030;-69
2022/01/07 06:39:18;;;;;;;15.33;6.77;;;;;;;13.71;48.24;101013.16;5115484;27;20027;-69
2022/01/07 06:41:44;;;;;;;17.67;7.17;;;;;;;13.09;48.64;101010.81;5132136;27;20024;-69
2022/01/07 06:44:09;;;;;;;16.33;7.63;;;;;;;14.23;46.94;101005.94;5133275;27;20019;-69
2022/01/07 06:46:34;;;;;;;20.43;7.63;;;;;;;13.70;47.49;101017.56;5133073;27;20031;-69
2022/01/07 06:49:00;;;;;;;20.53;7.97;;;;;;;13.72;48.46;101015.78;5132364;27;20042;-69
2022/01/07 06:51:25;;;;;;;23.00;7.10;;;;;;;14.58;45.75;101027.94;5110773;27;20388;-69
2022/01/07 06:53:50;;;;;;;23.97;8.90;;;;;;;14.05;46.45;101028.22;5095139;28;20448;-69
2022/01/07 06:56:16;;;;;;;14.60;6.83;;;;;;;14.51;45.23;101016.69;5126086;27;20031;-69
2022/01/07 06:58:42;;;;;;;18.33;8.33;;;;;;;13.46;48.04;101033.78;5114938;27;20023;-69
2022/01/07 07:01:07;;;;;;;14.53;7.40;;;;;;;14.25;46.69;101025.19;5132483;27;20019;-69
2022/01/07 07:03:33;;;;;;;19.10;7.67;;;;;;;14.20;47.02;101042.81;5107625;27;20031;-69
2022/01/07 07:05:58;;;;;;;17.77;7.63;;;;;;;12.46;50.66;101039.78;5113049;27;20505;-69
2022/01/07 07:08:23;;;;;;;10.83;6.60;;;;;;;13.37;47.14;101025.19;5114755;27;20023;-69
2022/01/07 07:10:49;;;;;;;12.77;7.50;;;;;;;12.84;50.63;101019.09;5113953;27;20042;-69
2022/01/07 07:13:15;;;;;;;13.57;6.83;;;;;;;12.94;49.45;101019.81;5096696;28;20115;-69
2022/01/07 07:15:40;;;;;;;12.40;6.17;;;;;;;12.95;49.77;101022.41;5105032;27;20080;-69
2022/01/07 07:18:05;;;;;;;14.40;6.30;;;;;;;13.73;47.33;101028.00;5113623;27;20491;-68
2022/01/07 07:20:31;;;;;;;11.60;6.53;;;;;;;12.77;51.24;101022.72;5114031;27;20043;-69
2022/01/07 07:22:56;;;;;;;13.77;6.13;;;;;;;12.69;49.04;101031.56;5105518;27;20039;-69
2022/01/07 07:25:23;;;;;;;15.30;6.70;;;;;;;13.89;46.95;101022.44;5097159;27;20142;-69
2022/01/07 07:27:49;;;;;;;15.13;6.07;;;;;;;14.26;46.20;101026.91;5114170;27;20105;-69
2022/01/07 07:30:15;;;;;;;11.23;6.43;;;;;;;13.95;46.78;101017.06;5114499;27;20470;-69
2022/01/07 07:32:40;;;;;;;17.67;6.00;;;;;;;12.87;48.46;101008.53;5111697;27;20027;-69
2022/01/07 07:37:41;;;;;;;15.60;6.40;;;;;;;14.50;44.80;100999.19;5131277;27;20523;-69
2022/01/07 07:40:07;;;;;;;12.90;6.00;;;;;;;13.67;46.90;101015.00;5112993;27;20039;-69
2022/01/07 07:42:32;;;;;;;14.57;5.73;;;;;;;14.00;46.87;100991.53;5130064;27;20027;-69
2022/01/07 07:44:58;;;;;;;9.97;5.00;;;;;;;13.28;48.35;101008.72;5112958;27;20030;-68
2022/01/07 07:47:23;;;;;;;10.57;5.63;;;;;;;13.52;47.35;101008.28;5126987;27;20027;-68
2022/01/07 07:49:48;;;;;;;18.10;5.30;;;;;;;14.23;45.88;101003.31;5113323;27;20168;-68
2022/01/07 07:52:14;;;;;;;14.80;5.77;;;;;;;13.49;46.30;101012.72;5111636;27;20459;-68
2022/01/07 07:54:40;;;;;;;9.07;5.27;;;;;;;14.24;45.54;101012.94;5108092;27;20072;-69
2022/01/07 07:57:06;;;;;;;17.97;6.10;;;;;;;13.12;48.67;101019.50;5130869;27;20084;-68
2022/01/07 07:59:31;;;;;;;16.73;6.87;;;;;;;13.45;46.89;101021.56;5113210;27;20023;-68
2022/01/07 08:01:56;;;;;;;13.50;6.20;;;;;;;12.76;49.52;101018.34;5113826;27;20061;-69
2022/01/07 08:04:22;;;;;;;11.17;5.50;;;;;;;13.03;48.86;101024.91;5127009;27;20493;-69
2022/01/07 08:06:49;;;;;;;12.37;5.53;;;;;;;12.31;50.04;101024.25;5108753;27;20031;-68
2022/01/07 08:09:14;;;;;;;12.83;5.77;;;;;;;12.97;48.90;101025.00;5123639;27;20391;-69
2022/01/07 08:11:56;;;;;;;13.43;5.97;;;;;;;12.64;50.48;101038.66;5113037;27;20076;-68
2022/01/07 08:17:06;;;;;;;13.80;5.87;;;;;;;12.93;49.82;101039.06;5115240;27;20046;-68
2022/01/07 08:19:33;;;;;;;20.53;6.63;;;;;;;13.16;48.85;101043.91;5120308;27;20119;-68
2022/01/07 08:21:58;;;;;;;14.80;7.30;;;;;;;13.13;47.90;101036.94;5092957;28;20027;-69
2022/01/07 08:24:24;;;;;;;12.00;5.23;;;;;;;13.14;48.58;101032.59;5104936;27;20506;-70
2022/01/07 08:26:49;;;;;;;11.43;5.90;;;;;;;14.31;44.63;101032.06;5111359;27;20031;-71
2022/01/07 08:29:16;;;;;;;12.27;5.67;;;;;;;13.03;49.25;101036.25;5104198;28;20051;-68
2022/01/07 08:36:51;;;;;;;13.43;5.27;;;;;;;13.52;46.87;101036.31;5130744;27;20050;-71
2022/01/07 08:39:17;;;;;;;16.60;5.77;;;;;;;13.85;45.40;101029.53;5127215;27;20027;-71
2022/01/07 08:41:42;;;;;;;13.40;5.37;;;;;;;13.77;47.27;101033.22;5112448;27;20364;-70
2022/01/07 08:44:09;;;;;;;11.20;4.70;;;;;;;13.34;47.47;101029.59;5112394;27;20534;-70
2022/01/07 08:46:35;;;;;;;13.73;5.67;;;;;;;12.53;49.69;101030.09;5131209;27;20466;-70
2022/01/07 08:49:01;;;;;;;9.73;4.93;;;;;;;13.37;48.00;101022.56;5107185;27;20039;-71
2022/01/07 08:51:26;;;;;;;14.30;4.90;;;;;;;13.01;48.49;101022.31;5112525;27;20068;-70
2022/01/07 08:53:52;;;;;;;10.13;5.47;;;;;;;13.12;48.93;101030.00;5112373;27;20027;-70
2022/01/07 08:56:17;;;;;;;11.87;5.50;;;;;;;12.89;48.58;101020.75;5107851;27;20134;-70
2022/01/07 08:58:43;;;;;;;12.27;5.10;;;;;;;12.69;49.80;101026.34;5113297;27;20022;-68
2022/01/07 09:01:08;;;;;;;11.80;4.93;;;;;;;13.61;48.31;101022.97;5108847;27;20451;-69
2022/01/07 09:03:34;;;;;;;13.83;4.93;;;;;;;12.19;52.31;101020.06;5107415;27;20046;-68
2022/01/07 09:05:59;;;;;;;15.80;5.43;;;;;;;13.48;47.48;101018.88;5112699;27;20075;-69
2022/01/07 09:08:25;;;;;;;9.13;4.37;;;;;;;12.65;50.72;101022.03;5126183;27;20027;-69
2022/01/07 09:10:51;;;;;;;11.40;6.07;;;;;;;13.63;47.88;101015.06;5129742;27;20063;-68
2022/01/07 09:13:20;;;;;;;20.03;5.57;;;;;;;12.78;49.88;101019.22;5130888;27;20030;-68
2022/01/07 09:15:45;;;;;;;11.63;5.23;;;;;;;13.62;48.30;101019.47;5101605;27;20019;-68
2022/01/07 09:18:11;;;;;;;16.23;4.93;;;;;;;13.49;48.12;101017.97;5124312;27;20023;-68
2022/01/07 09:20:38;;;;;;;9.50;5.30;;;;;;;12.86;49.14;101006.84;5103996;28;20100;-68
2022/01/07 09:23:04;;;;;;;13.10;5.77;;;;;;;13.23;48.46;101019.31;5103625;28;20043;-69
2022/01/07 09:25:30;;;;;;;10.73;5.07;;;;;;;13.49;47.95;101012.72;5108865;28;20028;-69
2022/01/07 09:27:55;;;;;;;11.53;4.87;;;;;;;13.23;48.56;101011.44;5093886;28;20020;-68
2022/01/07 09:30:20;;;;;;;12.70;4.90;;;;;;;13.04;48.81;101014.38;5088834;28;20060;-69
2022/01/07 09:32:46;;;;;;;10.23;3.63;;;;;;;12.01;51.16;101027.28;5104743;28;20539;-69
2022/01/07 09:35:11;;;;;;;11.10;5.07;;;;;;;13.52;47.79;101017.94;5092565;28;20586;-68
2022/01/07 09:37:37;;;;;;;9.77;4.60;;;;;;;14.57;45.36;101015.69;5089501;28;20073;-69
2022/01/07 09:40:03;;;;;;;8.67;4.47;;;;;;;14.00;46.22;101030.97;5088230;28;20063;-68
2022/01/07 09:42:29;;;;;;;13.67;4.63;;;;;;;14.18;46.62;101007.81;5101702;28;20081;-68
2022/01/07 09:44:56;;;;;;;15.00;5.70;;;;;;;13.55;48.55;101002.13;5108264;28;20073;-68
2022/01/07 09:47:23;;;;;;;9.50;4.60;;;;;;;15.03;44.80;101008.44;5097815;28;20084;-69
2022/01/07 09:49:49;;;;;;;9.47;4.67;;;;;;;14.14;47.18;101001.75;5105813;28;20045;-68
2022/01/07 09:52:14;;;;;;;12.43;5.17;;;;;;;12.47;50.74;101014.44;5099983;28;20035;-68
2022/01/07 09:54:40;;;;;;;16.27;4.70;;;;;;;13.90;47.53;101003.13;5110271;28;20032;-68
2022/01/07 09:57:06;;;;;;;16.53;5.17;;;;;;;13.73;49.02;101011.38;5092255;28;20283;-68
2022/01/07 09:59:37;;;;;;;8.30;4.13;;;;;;;14.25;47.29;101009.41;5089225;28;20043;-68
2022/01/07 10:02:05;;;;;;;14.07;5.00;;;;;;;14.61;46.24;101009.44;5098260;28;20023;-69
2022/01/07 10:04:36;;;;;;;10.37;4.10;;;;;;;14.86;44.93;101014.13;5108608;28;20472;-68
2022/01/07 10:07:16;;;;;;;12.23;4.47;;;;;;;15.09;45.41;101009.16;5108007;28;20374;-69
2022/01/07 10:10:10;;;;;;;12.17;4.00;;;;;;;16.18;42.91;101016.69;5108783;28;20475;-69
2022/01/07 10:13:18;;;;;;;8.87;4.47;;;;;;;15.44;44.21;101031.06;5105880;28;20543;-68
2022/01/07 10:15:43;;;;;;;10.17;4.17;;;;;;;16.23;41.96;101022.69;5010623;28;20477;-69
2022/01/07 10:18:11;;;;;;;8.40;4.17;;;;;;;16.42;42.76;101013.28;5026894;28;20068;-69
2022/01/07 10:20:38;;;;;;;10.03;3.17;;;;;;;15.63;43.78;101016.50;5056806;28;20105;-69
2022/01/07 10:23:08;;;;;;;11.13;3.50;;;;;;;16.76;42.66;101009.56;5089115;28;20078;-68
2022/01/07 10:25:37;;;;;;;8.13;3.50;;;;;;;15.62;43.39;101015.66;5090303;28;20413;-69
2022/01/07 10:28:06;;;;;;;8.83;3.40;;;;;;;16.01;42.58;101012.78;5107119;28;20035;-69
2022/01/07 10:30:39;;;;;;;6.10;3.13;;;;;;;15.64;43.20;101005.06;5107056;28;20480;-69
2022/01/07 10:33:34;;;;;;;13.10;3.37;;;;;;;17.43;39.81;101005.56;5087575;28;20020;-68
2022/01/07 10:36:06;;;;;;;8.63;3.27;;;;;;;17.49;39.09;100998.31;5087575;28;20063;-69
2022/01/07 10:38:32;;;;;;;8.53;2.47;;;;;;;16.85;40.43;100997.00;5088029;28;20044;-69
2022/01/07 10:41:01;;;;;;;10.43;2.30;;;;;;;17.39;39.63;100998.66;5090351;28;20046;-69
2022/01/07 10:43:29;;;;;;;7.57;2.87;;;;;;;17.80;38.85;100998.94;5107166;28;20028;-69
2022/01/07 10:46:07;;;;;;;11.30;3.17;;;;;;;17.15;39.96;100999.53;5105577;28;20084;-69
2022/01/07 10:48:57;;;;;;;12.73;2.87;;;;;;;16.99;39.85;100994.75;5087180;28;20452;-69
2022/01/07 10:51:28;;;;;;;9.57;2.20;;;;;;;17.65;38.31;100988.91;5096979;28;20465;-69
2022/01/07 10:53:59;;;;;;;8.40;2.50;;;;;;;16.40;40.72;100994.03;5108214;28;20118;-69
2022/01/07 10:56:31;;;;;;;8.97;2.00;;;;;;;16.48;40.36;100987.63;5100693;28;20020;-69
2022/01/07 10:58:59;;;;;;;5.73;2.27;;;;;;;16.42;41.13;100989.56;5089532;28;20434;-69
2022/01/07 11:01:29;;;;;;;13.17;2.10;;;;;;;17.28;39.44;100984.94;5092950;28;20070;-69
2022/01/07 11:03:57;;;;;;;5.17;1.60;;;;;;;16.65;39.18;100979.16;5091256;28;20020;-69
2022/01/07 11:06:23;;;;;;;10.77;2.37;;;;;;;16.45;40.19;100978.91;5093203;28;20437;-69
2022/01/07 11:08:51;;;;;;;11.03;2.43;;;;;;;17.09;39.50;100977.69;5092071;28;20492;-69
2022/01/07 11:11:18;;;;;;;8.13;1.87;;;;;;;16.51;39.94;100971.69;5104137;28;20019;-69
2022/01/07 11:13:44;;;;;;;6.20;1.47;;;;;;;15.40;41.48;100984.63;5112880;28;20031;-69
2022/01/07 11:16:09;;;;;;;11.30;1.53;;;;;;;15.70;40.57;100989.06;5111953;28;20168;-69
2022/01/07 11:18:39;;;;;;;5.27;1.20;;;;;;;16.61;39.49;100983.69;5112705;28;20026;-69
2022/01/07 11:21:06;;;;;;;6.20;1.53;;;;;;;16.67;38.74;100987.91;5102205;28;20173;-69
2022/01/07 11:23:32;;;;;;;8.13;1.80;;;;;;;17.09;38.16;101001.47;5110842;28;20046;-69
2022/01/07 11:26:03;;;;;;;4.60;1.50;;;;;;;17.38;37.26;100986.38;5112594;28;20035;-68